sensor_id;sensor_type;location;lat;lon;timestamp;P1;durP1;ratioP1;P2;durP2;ratioP2
57345;SDS011;43181;50.974;18.244;2022-08-21T00:01:17;11.00;;;6.10;;
57345;SDS011;43181;50.974;18.244;2022-08-21T00:03:44;10.90;;;5.70;;
57345;SDS011;43181;50.974;18.244;2022-08-21T00:06:10;12.10;;;5.80;;
57345;SDS011;43181;50.974;18.244;2022-08-21T00:08:35;10.80;;;6.00;;
57345;SDS011;43181;50.974;18.244;2022-08-21T00:11:02;16.00;;;6.20;;
57345;SDS011;43181;50.974;18.244;2022-08-21T00:13:28;11.70;;;5.20;;
57345;SDS011;43181;50.974;18.244;2022-08-21T00:15:54;10.20;;;5.80;;
57345;SDS011;43181;50.974;18.244;2022-08-21T00:18:19;12.00;;;6.10;;
57345;SDS011;43181;50.974;18.244;2022-08-21T00:20:45;12.20;;;6.40;;
57345;SDS011;43181;50.974;18.244;2022-08-21T00:23:12;12.50;;;6.60;;
57345;SDS011;43181;50.974;18.244;2022-08-21T00:25:38;10.70;;;5.70;;
57345;SDS011;43181;50.974;18.244;2022-08-21T00:28:05;15.20;;;7.40;;
57345;SDS011;43181;50.974;18.244;2022-08-21T00:30:32;16.10;;;6.90;;
57345;SDS011;43181;50.974;18.244;2022-08-21T00:32:59;15.50;;;6.80;;
57345;SDS011;43181;50.974;18.244;2022-08-21T00:35:29;12.40;;;6.70;;
57345;SDS011;43181;50.974;18.244;2022-08-21T00:37:57;13.90;;;7.30;;
57345;SDS011;43181;50.974;18.244;2022-08-21T00:40:25;12.40;;;6.40;;
57345;SDS011;43181;50.974;18.244;2022-08-21T00:43:12;12.30;;;6.40;;
57345;SDS011;43181;50.974;18.244;2022-08-21T00:45:39;15.10;;;6.70;;
57345;SDS011;43181;50.974;18.244;2022-08-21T00:48:05;12.40;;;7.00;;
57345;SDS011;43181;50.974;18.244;2022-08-21T00:50:32;15.80;;;6.40;;
57345;SDS011;43181;50.974;18.244;2022-08-21T00:53:01;13.80;;;6.50;;
57345;SDS011;43181;50.974;18.244;2022-08-21T00:55:28;10.70;;;5.80;;
57345;SDS011;43181;50.974;18.244;2022-08-21T00:57:55;11.30;;;6.40;;
57345;SDS011;43181;50.974;18.244;2022-08-21T01:00:27;15.80;;;6.30;;
57345;SDS011;43181;50.974;18.244;2022-08-21T01:02:56;13.60;;;6.30;;
57345;SDS011;43181;50.974;18.244;2022-08-21T01:05:23;12.10;;;6.40;;
57345;SDS011;43181;50.974;18.244;2022-08-21T01:07:48;13.70;;;6.50;;
57345;SDS011;43181;50.974;18.244;2022-08-21T01:10:14;16.10;;;7.40;;
57345;SDS011;43181;50.974;18.244;2022-08-21T01:12:40;12.90;;;6.10;;
57345;SDS011;43181;50.974;18.244;2022-08-21T01:15:09;15.70;;;7.30;;
57345;SDS011;43181;50.974;18.244;2022-08-21T01:17:35;13.10;;;6.40;;
57345;SDS011;43181;50.974;18.244;2022-08-21T01:20:04;14.10;;;6.80;;
57345;SDS011;43181;50.974;18.244;2022-08-21T01:22:32;15.80;;;7.60;;
57345;SDS011;43181;50.974;18.244;2022-08-21T01:24:58;13.00;;;6.30;;
57345;SDS011;43181;50.974;18.244;2022-08-21T01:27:23;11.90;;;6.30;;
57345;SDS011;43181;50.974;18.244;2022-08-21T01:29:57;12.50;;;6.00;;
57345;SDS011;43181;50.974;18.244;2022-08-21T01:32:24;11.90;;;5.90;;
57345;SDS011;43181;50.974;18.244;2022-08-21T01:34:50;11.50;;;5.70;;
57345;SDS011;43181;50.974;18.244;2022-08-21T01:37:16;11.70;;;6.00;;
57345;SDS011;43181;50.974;18.244;2022-08-21T01:39:44;13.20;;;6.10;;
57345;SDS011;43181;50.974;18.244;2022-08-21T01:42:10;13.40;;;6.50;;
57345;SDS011;43181;50.974;18.244;2022-08-21T01:44:35;16.50;;;7.20;;
57345;SDS011;43181;50.974;18.244;2022-08-21T01:47:03;13.20;;;6.50;;
57345;SDS011;43181;50.974;18.244;2022-08-21T01:49:33;11.90;;;6.80;;
57345;SDS011;43181;50.974;18.244;2022-08-21T01:51:59;13.10;;;6.10;;
57345;SDS011;43181;50.974;18.244;2022-08-21T01:54:25;14.70;;;6.90;;
57345;SDS011;43181;50.974;18.244;2022-08-21T01:56:52;14.80;;;7.00;;
57345;SDS011;43181;50.974;18.244;2022-08-21T01:59:18;14.80;;;7.40;;
57345;SDS011;43181;50.974;18.244;2022-08-21T02:01:43;13.20;;;7.30;;
57345;SDS011;43181;50.974;18.244;2022-08-21T02:04:09;14.60;;;7.00;;
57345;SDS011;43181;50.974;18.244;2022-08-21T02:06:36;16.90;;;7.20;;
57345;SDS011;43181;50.974;18.244;2022-08-21T02:09:03;16.30;;;7.40;;
57345;SDS011;43181;50.974;18.244;2022-08-21T02:11:30;16.60;;;6.80;;
57345;SDS011;43181;50.974;18.244;2022-08-21T02:13:56;16.10;;;7.40;;
57345;SDS011;43181;50.974;18.244;2022-08-21T02:16:22;13.70;;;7.80;;
57345;SDS011;43181;50.974;18.244;2022-08-21T02:18:48;15.70;;;7.90;;
57345;SDS011;43181;50.974;18.244;2022-08-21T02:21:14;14.30;;;7.70;;
57345;SDS011;43181;50.974;18.244;2022-08-21T02:23:40;15.60;;;7.00;;
57345;SDS011;43181;50.974;18.244;2022-08-21T02:26:06;14.30;;;7.00;;
57345;SDS011;43181;50.974;18.244;2022-08-21T02:28:33;15.70;;;7.30;;
57345;SDS011;43181;50.974;18.244;2022-08-21T02:31:00;14.00;;;5.80;;
57345;SDS011;43181;50.974;18.244;2022-08-21T02:33:27;13.40;;;6.30;;
57345;SDS011;43181;50.974;18.244;2022-08-21T02:35:52;12.10;;;6.50;;
57345;SDS011;43181;50.974;18.244;2022-08-21T02:38:21;14.80;;;7.20;;
57345;SDS011;43181;50.974;18.244;2022-08-21T02:40:51;13.80;;;7.20;;
57345;SDS011;43181;50.974;18.244;2022-08-21T02:43:19;15.70;;;7.60;;
57345;SDS011;43181;50.974;18.244;2022-08-21T02:45:46;15.70;;;7.10;;
57345;SDS011;43181;50.974;18.244;2022-08-21T02:48:14;14.00;;;7.10;;
57345;SDS011;43181;50.974;18.244;2022-08-21T02:50:46;13.50;;;6.90;;
57345;SDS011;43181;50.974;18.244;2022-08-21T02:53:32;13.00;;;7.10;;
57345;SDS011;43181;50.974;18.244;2022-08-21T02:55:59;14.00;;;6.80;;
57345;SDS011;43181;50.974;18.244;2022-08-21T02:58:27;11.30;;;5.60;;
57345;SDS011;43181;50.974;18.244;2022-08-21T03:03:24;10.30;;;5.10;;
57345;SDS011;43181;50.974;18.244;2022-08-21T03:05:50;8.80;;;4.50;;
57345;SDS011;43181;50.974;18.244;2022-08-21T03:08:17;9.40;;;4.40;;
57345;SDS011;43181;50.974;18.244;2022-08-21T03:10:45;9.90;;;4.40;;
57345;SDS011;43181;50.974;18.244;2022-08-21T03:13:13;8.90;;;3.90;;
57345;SDS011;43181;50.974;18.244;2022-08-21T03:15:39;8.10;;;3.80;;
57345;SDS011;43181;50.974;18.244;2022-08-21T03:18:06;6.90;;;3.60;;
57345;SDS011;43181;50.974;18.244;2022-08-21T03:20:32;7.70;;;3.20;;
57345;SDS011;43181;50.974;18.244;2022-08-21T03:22:59;5.50;;;3.00;;
57345;SDS011;43181;50.974;18.244;2022-08-21T03:25:26;9.30;;;3.00;;
57345;SDS011;43181;50.974;18.244;2022-08-21T03:27:52;5.60;;;2.90;;
57345;SDS011;43181;50.974;18.244;2022-08-21T03:30:19;6.90;;;3.10;;
57345;SDS011;43181;50.974;18.244;2022-08-21T03:32:46;7.50;;;3.00;;
57345;SDS011;43181;50.974;18.244;2022-08-21T03:35:12;8.40;;;3.00;;
57345;SDS011;43181;50.974;18.244;2022-08-21T03:37:38;6.90;;;3.00;;
57345;SDS011;43181;50.974;18.244;2022-08-21T03:40:04;5.30;;;2.60;;
57345;SDS011;43181;50.974;18.244;2022-08-21T03:42:32;4.60;;;2.40;;
57345;SDS011;43181;50.974;18.244;2022-08-21T03:44:57;5.10;;;2.40;;
57345;SDS011;43181;50.974;18.244;2022-08-21T03:47:23;5.20;;;2.90;;
57345;SDS011;43181;50.974;18.244;2022-08-21T03:49:48;8.50;;;2.50;;
57345;SDS011;43181;50.974;18.244;2022-08-21T03:52:14;4.40;;;2.30;;
57345;SDS011;43181;50.974;18.244;2022-08-21T03:54:41;5.30;;;2.80;;
57345;SDS011;43181;50.974;18.244;2022-08-21T03:57:07;5.40;;;2.60;;
57345;SDS011;43181;50.974;18.244;2022-08-21T03:59:34;5.70;;;3.20;;
57345;SDS011;43181;50.974;18.244;2022-08-21T04:02:01;6.80;;;2.30;;
57345;SDS011;43181;50.974;18.244;2022-08-21T04:04:28;7.80;;;2.80;;
57345;SDS011;43181;50.974;18.244;2022-08-21T04:06:57;6.00;;;2.70;;
57345;SDS011;43181;50.974;18.244;2022-08-21T04:09:26;4.40;;;2.30;;
57345;SDS011;43181;50.974;18.244;2022-08-21T04:11:52;5.70;;;2.70;;
57345;SDS011;43181;50.974;18.244;2022-08-21T04:14:18;5.60;;;2.70;;
57345;SDS011;43181;50.974;18.244;2022-08-21T04:16:44;6.80;;;2.80;;
57345;SDS011;43181;50.974;18.244;2022-08-21T04:19:10;7.80;;;2.50;;
57345;SDS011;43181;50.974;18.244;2022-08-21T04:21:38;7.70;;;3.10;;
57345;SDS011;43181;50.974;18.244;2022-08-21T04:24:05;8.40;;;3.20;;
57345;SDS011;43181;50.974;18.244;2022-08-21T04:26:32;8.00;;;2.90;;
57345;SDS011;43181;50.974;18.244;2022-08-21T04:28:59;5.60;;;2.60;;
57345;SDS011;43181;50.974;18.244;2022-08-21T04:31:26;7.50;;;3.30;;
57345;SDS011;43181;50.974;18.244;2022-08-21T04:33:53;7.10;;;3.50;;
57345;SDS011;43181;50.974;18.244;2022-08-21T04:36:19;8.40;;;3.00;;
57345;SDS011;43181;50.974;18.244;2022-08-21T04:38:45;6.90;;;3.00;;
57345;SDS011;43181;50.974;18.244;2022-08-21T04:41:11;6.70;;;3.20;;
57345;SDS011;43181;50.974;18.244;2022-08-21T04:43:37;6.70;;;3.50;;
57345;SDS011;43181;50.974;18.244;2022-08-21T04:46:04;6.90;;;2.90;;
57345;SDS011;43181;50.974;18.244;2022-08-21T04:48:30;6.00;;;2.70;;
57345;SDS011;43181;50.974;18.244;2022-08-21T04:50:57;6.20;;;3.00;;
57345;SDS011;43181;50.974;18.244;2022-08-21T04:53:40;7.40;;;3.00;;
57345;SDS011;43181;50.974;18.244;2022-08-21T04:56:09;10.40;;;4.60;;
57345;SDS011;43181;50.974;18.244;2022-08-21T04:59:01;6.50;;;4.10;;
57345;SDS011;43181;50.974;18.244;2022-08-21T05:01:30;5.50;;;3.40;;
57345;SDS011;43181;50.974;18.244;2022-08-21T05:03:59;7.80;;;2.80;;
57345;SDS011;43181;50.974;18.244;2022-08-21T05:06:28;4.80;;;2.70;;
57345;SDS011;43181;50.974;18.244;2022-08-21T05:08:54;5.80;;;2.90;;
57345;SDS011;43181;50.974;18.244;2022-08-21T05:11:21;8.10;;;3.10;;
57345;SDS011;43181;50.974;18.244;2022-08-21T05:13:47;8.30;;;3.10;;
57345;SDS011;43181;50.974;18.244;2022-08-21T05:16:16;5.70;;;2.70;;
57345;SDS011;43181;50.974;18.244;2022-08-21T05:18:42;4.50;;;2.80;;
57345;SDS011;43181;50.974;18.244;2022-08-21T05:21:08;7.70;;;3.20;;
57345;SDS011;43181;50.974;18.244;2022-08-21T05:23:34;6.20;;;3.50;;
57345;SDS011;43181;50.974;18.244;2022-08-21T05:26:01;6.50;;;2.60;;
57345;SDS011;43181;50.974;18.244;2022-08-21T05:28:27;8.20;;;3.00;;
57345;SDS011;43181;50.974;18.244;2022-08-21T05:30:54;6.50;;;2.20;;
57345;SDS011;43181;50.974;18.244;2022-08-21T05:33:20;7.90;;;2.80;;
57345;SDS011;43181;50.974;18.244;2022-08-21T05:35:48;7.20;;;2.90;;
57345;SDS011;43181;50.974;18.244;2022-08-21T05:38:16;9.20;;;2.60;;
57345;SDS011;43181;50.974;18.244;2022-08-21T05:40:41;9.60;;;2.50;;
57345;SDS011;43181;50.974;18.244;2022-08-21T05:43:08;5.50;;;2.60;;
57345;SDS011;43181;50.974;18.244;2022-08-21T05:45:34;5.40;;;2.70;;
57345;SDS011;43181;50.974;18.244;2022-08-21T05:48:09;5.80;;;2.10;;
57345;SDS011;43181;50.974;18.244;2022-08-21T05:50:37;5.20;;;2.60;;
57345;SDS011;43181;50.974;18.244;2022-08-21T05:53:03;7.30;;;2.20;;
57345;SDS011;43181;50.974;18.244;2022-08-21T05:55:29;6.00;;;2.20;;
57345;SDS011;43181;50.974;18.244;2022-08-21T05:57:57;4.40;;;2.30;;
57345;SDS011;43181;50.974;18.244;2022-08-21T06:00:23;6.10;;;2.10;;
57345;SDS011;43181;50.974;18.244;2022-08-21T06:02:58;4.90;;;2.00;;
57345;SDS011;43181;50.974;18.244;2022-08-21T06:05:23;4.60;;;2.00;;
57345;SDS011;43181;50.974;18.244;2022-08-21T06:07:50;3.80;;;2.30;;
57345;SDS011;43181;50.974;18.244;2022-08-21T06:10:16;4.60;;;2.30;;
57345;SDS011;43181;50.974;18.244;2022-08-21T06:12:42;6.80;;;2.30;;
57345;SDS011;43181;50.974;18.244;2022-08-21T06:15:07;5.20;;;2.40;;
57345;SDS011;43181;50.974;18.244;2022-08-21T06:17:33;5.80;;;2.40;;
57345;SDS011;43181;50.974;18.244;2022-08-21T06:19:59;5.40;;;2.40;;
57345;SDS011;43181;50.974;18.244;2022-08-21T06:22:24;5.10;;;2.10;;
57345;SDS011;43181;50.974;18.244;2022-08-21T06:24:50;6.70;;;2.50;;
57345;SDS011;43181;50.974;18.244;2022-08-21T06:27:15;4.70;;;2.40;;
57345;SDS011;43181;50.974;18.244;2022-08-21T06:29:42;5.20;;;2.40;;
57345;SDS011;43181;50.974;18.244;2022-08-21T06:32:10;5.80;;;2.50;;
57345;SDS011;43181;50.974;18.244;2022-08-21T06:34:37;6.10;;;3.00;;
57345;SDS011;43181;50.974;18.244;2022-08-21T06:37:04;5.30;;;3.10;;
57345;SDS011;43181;50.974;18.244;2022-08-21T06:39:30;11.70;;;4.10;;
57345;SDS011;43181;50.974;18.244;2022-08-21T06:41:56;7.80;;;4.20;;
57345;SDS011;43181;50.974;18.244;2022-08-21T06:44:22;9.50;;;4.70;;
57345;SDS011;43181;50.974;18.244;2022-08-21T06:46:47;11.10;;;4.60;;
57345;SDS011;43181;50.974;18.244;2022-08-21T06:49:13;10.10;;;4.60;;
57345;SDS011;43181;50.974;18.244;2022-08-21T06:51:41;9.80;;;4.40;;
57345;SDS011;43181;50.974;18.244;2022-08-21T06:54:06;6.80;;;4.00;;
57345;SDS011;43181;50.974;18.244;2022-08-21T06:56:32;7.80;;;4.10;;
57345;SDS011;43181;50.974;18.244;2022-08-21T06:59:00;9.10;;;4.80;;
57345;SDS011;43181;50.974;18.244;2022-08-21T07:01:27;9.60;;;4.00;;
57345;SDS011;43181;50.974;18.244;2022-08-21T07:03:53;5.80;;;3.60;;
57345;SDS011;43181;50.974;18.244;2022-08-21T07:06:19;8.90;;;4.00;;
57345;SDS011;43181;50.974;18.244;2022-08-21T07:08:44;7.90;;;3.60;;
57345;SDS011;43181;50.974;18.244;2022-08-21T07:11:11;6.40;;;3.30;;
57345;SDS011;43181;50.974;18.244;2022-08-21T07:13:39;7.10;;;2.90;;
57345;SDS011;43181;50.974;18.244;2022-08-21T07:16:05;4.30;;;2.50;;
57345;SDS011;43181;50.974;18.244;2022-08-21T07:18:30;4.60;;;2.20;;
57345;SDS011;43181;50.974;18.244;2022-08-21T07:21:00;6.30;;;2.60;;
57345;SDS011;43181;50.974;18.244;2022-08-21T07:23:29;3.50;;;2.10;;
57345;SDS011;43181;50.974;18.244;2022-08-21T07:25:58;4.90;;;2.10;;
57345;SDS011;43181;50.974;18.244;2022-08-21T07:28:27;2.90;;;1.70;;
57345;SDS011;43181;50.974;18.244;2022-08-21T07:30:54;2.20;;;1.40;;
57345;SDS011;43181;50.974;18.244;2022-08-21T07:33:22;3.50;;;1.30;;
57345;SDS011;43181;50.974;18.244;2022-08-21T07:35:49;3.60;;;1.00;;
57345;SDS011;43181;50.974;18.244;2022-08-21T07:38:15;2.10;;;0.90;;
57345;SDS011;43181;50.974;18.244;2022-08-21T07:40:43;2.20;;;0.80;;
57345;SDS011;43181;50.974;18.244;2022-08-21T07:43:08;1.40;;;0.50;;
57345;SDS011;43181;50.974;18.244;2022-08-21T07:45:34;1.90;;;1.40;;
57345;SDS011;43181;50.974;18.244;2022-08-21T07:48:00;1.20;;;0.60;;
57345;SDS011;43181;50.974;18.244;2022-08-21T07:50:25;0.90;;;0.40;;
57345;SDS011;43181;50.974;18.244;2022-08-21T07:52:51;3.00;;;1.00;;
57345;SDS011;43181;50.974;18.244;2022-08-21T07:55:18;0.80;;;0.50;;
57345;SDS011;43181;50.974;18.244;2022-08-21T07:57:45;0.70;;;0.40;;
57345;SDS011;43181;50.974;18.244;2022-08-21T08:00:18;0.50;;;0.30;;
57345;SDS011;43181;50.974;18.244;2022-08-21T08:02:46;1.30;;;0.50;;
57345;SDS011;43181;50.974;18.244;2022-08-21T08:05:14;1.70;;;0.50;;
57345;SDS011;43181;50.974;18.244;2022-08-21T08:07:41;1.00;;;0.40;;
57345;SDS011;43181;50.974;18.244;2022-08-21T08:10:08;1.90;;;0.30;;
57345;SDS011;43181;50.974;18.244;2022-08-21T08:12:34;1.00;;;0.40;;
57345;SDS011;43181;50.974;18.244;2022-08-21T08:15:01;1.60;;;0.40;;
57345;SDS011;43181;50.974;18.244;2022-08-21T08:17:28;0.50;;;0.20;;
57345;SDS011;43181;50.974;18.244;2022-08-21T08:19:53;1.20;;;0.50;;
57345;SDS011;43181;50.974;18.244;2022-08-21T08:22:20;0.30;;;0.30;;
57345;SDS011;43181;50.974;18.244;2022-08-21T08:24:49;0.20;;;0.20;;
57345;SDS011;43181;50.974;18.244;2022-08-21T08:27:15;1.50;;;0.30;;
57345;SDS011;43181;50.974;18.244;2022-08-21T08:29:42;0.80;;;0.30;;
57345;SDS011;43181;50.974;18.244;2022-08-21T08:32:08;0.30;;;0.20;;
57345;SDS011;43181;50.974;18.244;2022-08-21T08:34:34;3.10;;;0.40;;
57345;SDS011;43181;50.974;18.244;2022-08-21T08:37:01;1.00;;;0.30;;
57345;SDS011;43181;50.974;18.244;2022-08-21T08:39:29;0.50;;;0.20;;
57345;SDS011;43181;50.974;18.244;2022-08-21T08:44:32;0.40;;;0.30;;
57345;SDS011;43181;50.974;18.244;2022-08-21T08:46:58;0.70;;;0.30;;
57345;SDS011;43181;50.974;18.244;2022-08-21T08:54:30;1.20;;;0.20;;
57345;SDS011;43181;50.974;18.244;2022-08-21T08:56:59;0.60;;;0.30;;
57345;SDS011;43181;50.974;18.244;2022-08-21T08:59:27;0.60;;;0.30;;
57345;SDS011;43181;50.974;18.244;2022-08-21T09:02:16;0.40;;;0.20;;
57345;SDS011;43181;50.974;18.244;2022-08-21T09:04:43;0.50;;;0.20;;
57345;SDS011;43181;50.974;18.244;2022-08-21T09:09:46;0.30;;;0.30;;
57345;SDS011;43181;50.974;18.244;2022-08-21T09:12:15;0.60;;;0.30;;
57345;SDS011;43181;50.974;18.244;2022-08-21T09:25:31;0.50;;;0.40;;
57345;SDS011;43181;50.974;18.244;2022-08-21T09:27:58;0.60;;;0.30;;
57345;SDS011;43181;50.974;18.244;2022-08-21T09:30:26;0.40;;;0.40;;
57345;SDS011;43181;50.974;18.244;2022-08-21T09:32:54;0.30;;;0.30;;
57345;SDS011;43181;50.974;18.244;2022-08-21T09:35:21;1.50;;;0.40;;
57345;SDS011;43181;50.974;18.244;2022-08-21T09:40:29;0.50;;;0.40;;
57345;SDS011;43181;50.974;18.244;2022-08-21T09:45:45;1.30;;;0.40;;
57345;SDS011;43181;50.974;18.244;2022-08-21T09:48:23;0.30;;;0.30;;
57345;SDS011;43181;50.974;18.244;2022-08-21T09:50:50;0.30;;;0.30;;
57345;SDS011;43181;50.974;18.244;2022-08-21T09:53:24;1.10;;;0.50;;
57345;SDS011;43181;50.974;18.244;2022-08-21T09:56:04;0.50;;;0.50;;
57345;SDS011;43181;50.974;18.244;2022-08-21T09:58:59;1.20;;;0.50;;
57345;SDS011;43181;50.974;18.244;2022-08-21T10:01:25;0.40;;;0.40;;
57345;SDS011;43181;50.974;18.244;2022-08-21T10:04:10;0.60;;;0.40;;
57345;SDS011;43181;50.974;18.244;2022-08-21T10:06:36;0.40;;;0.40;;
57345;SDS011;43181;50.974;18.244;2022-08-21T10:09:09;0.70;;;0.50;;
57345;SDS011;43181;50.974;18.244;2022-08-21T10:11:37;0.80;;;0.60;;
57345;SDS011;43181;50.974;18.244;2022-08-21T10:17:17;0.60;;;0.60;;
57345;SDS011;43181;50.974;18.244;2022-08-21T10:22:34;0.60;;;0.60;;
57345;SDS011;43181;50.974;18.244;2022-08-21T10:25:39;0.60;;;0.60;;
57345;SDS011;43181;50.974;18.244;2022-08-21T10:31:09;0.70;;;0.70;;
57345;SDS011;43181;50.974;18.244;2022-08-21T10:34:06;1.30;;;1.00;;
57345;SDS011;43181;50.974;18.244;2022-08-21T10:36:52;1.00;;;0.90;;
57345;SDS011;43181;50.974;18.244;2022-08-21T10:39:37;1.10;;;1.00;;
57345;SDS011;43181;50.974;18.244;2022-08-21T10:42:27;1.60;;;1.20;;
57345;SDS011;43181;50.974;18.244;2022-08-21T10:45:22;1.60;;;1.30;;
57345;SDS011;43181;50.974;18.244;2022-08-21T10:47:54;1.50;;;1.20;;
57345;SDS011;43181;50.974;18.244;2022-08-21T10:55:59;2.00;;;1.60;;
57345;SDS011;43181;50.974;18.244;2022-08-21T10:58:38;2.90;;;2.00;;
57345;SDS011;43181;50.974;18.244;2022-08-21T11:01:13;2.10;;;1.90;;
57345;SDS011;43181;50.974;18.244;2022-08-21T11:03:45;3.00;;;2.40;;
57345;SDS011;43181;50.974;18.244;2022-08-21T11:06:22;2.30;;;2.10;;
57345;SDS011;43181;50.974;18.244;2022-08-21T11:08:50;2.60;;;2.30;;
57345;SDS011;43181;50.974;18.244;2022-08-21T11:11:24;3.30;;;2.40;;
57345;SDS011;43181;50.974;18.244;2022-08-21T11:13:53;4.60;;;2.80;;
57345;SDS011;43181;50.974;18.244;2022-08-21T11:18:57;4.70;;;3.20;;
57345;SDS011;43181;50.974;18.244;2022-08-21T11:21:29;3.60;;;2.80;;
57345;SDS011;43181;50.974;18.244;2022-08-21T11:24:30;3.80;;;3.00;;
57345;SDS011;43181;50.974;18.244;2022-08-21T11:29:33;5.10;;;3.90;;
57345;SDS011;43181;50.974;18.244;2022-08-21T11:45:50;5.70;;;3.90;;
57345;SDS011;43181;50.974;18.244;2022-08-21T11:50:56;5.00;;;4.10;;
57345;SDS011;43181;50.974;18.244;2022-08-21T11:56:17;5.80;;;4.30;;
57345;SDS011;43181;50.974;18.244;2022-08-21T11:59:16;7.50;;;4.90;;
57345;SDS011;43181;50.974;18.244;2022-08-21T12:01:48;6.20;;;4.30;;
57345;SDS011;43181;50.974;18.244;2022-08-21T12:04:17;5.20;;;3.70;;
57345;SDS011;43181;50.974;18.244;2022-08-21T12:06:48;6.20;;;3.90;;
57345;SDS011;43181;50.974;18.244;2022-08-21T12:11:50;4.20;;;3.30;;
57345;SDS011;43181;50.974;18.244;2022-08-21T12:14:34;3.50;;;2.80;;
57345;SDS011;43181;50.974;18.244;2022-08-21T12:17:17;5.00;;;3.50;;
57345;SDS011;43181;50.974;18.244;2022-08-21T12:23:05;6.00;;;4.20;;
57345;SDS011;43181;50.974;18.244;2022-08-21T12:28:35;6.30;;;3.80;;
57345;SDS011;43181;50.974;18.244;2022-08-21T12:31:00;6.90;;;3.90;;
57345;SDS011;43181;50.974;18.244;2022-08-21T12:36:06;4.70;;;3.30;;
57345;SDS011;43181;50.974;18.244;2022-08-21T12:38:41;5.90;;;3.80;;
57345;SDS011;43181;50.974;18.244;2022-08-21T12:41:16;5.10;;;3.30;;
57345;SDS011;43181;50.974;18.244;2022-08-21T12:43:47;6.00;;;3.60;;
57345;SDS011;43181;50.974;18.244;2022-08-21T12:46:21;5.20;;;3.50;;
57345;SDS011;43181;50.974;18.244;2022-08-21T12:49:00;6.20;;;3.70;;
57345;SDS011;43181;50.974;18.244;2022-08-21T12:54:30;5.40;;;3.20;;
57345;SDS011;43181;50.974;18.244;2022-08-21T12:57:00;5.40;;;3.40;;
57345;SDS011;43181;50.974;18.244;2022-08-21T12:59:27;3.70;;;3.00;;
57345;SDS011;43181;50.974;18.244;2022-08-21T13:01:54;5.20;;;3.20;;
57345;SDS011;43181;50.974;18.244;2022-08-21T13:04:22;5.40;;;3.20;;
57345;SDS011;43181;50.974;18.244;2022-08-21T13:07:05;5.20;;;3.20;;
57345;SDS011;43181;50.974;18.244;2022-08-21T13:09:32;5.60;;;3.30;;
57345;SDS011;43181;50.974;18.244;2022-08-21T13:12:01;4.50;;;2.60;;
57345;SDS011;43181;50.974;18.244;2022-08-21T13:14:37;4.60;;;2.50;;
57345;SDS011;43181;50.974;18.244;2022-08-21T13:17:05;4.20;;;3.00;;
57345;SDS011;43181;50.974;18.244;2022-08-21T13:19:32;5.70;;;3.00;;
57345;SDS011;43181;50.974;18.244;2022-08-21T13:21:59;3.50;;;2.50;;
57345;SDS011;43181;50.974;18.244;2022-08-21T13:24:27;4.00;;;2.50;;
57345;SDS011;43181;50.974;18.244;2022-08-21T13:26:54;3.40;;;2.80;;
57345;SDS011;43181;50.974;18.244;2022-08-21T13:29:21;3.60;;;2.30;;
57345;SDS011;43181;50.974;18.244;2022-08-21T13:31:49;3.40;;;2.50;;
57345;SDS011;43181;50.974;18.244;2022-08-21T13:34:18;3.50;;;2.40;;
57345;SDS011;43181;50.974;18.244;2022-08-21T13:36:46;4.00;;;2.50;;
57345;SDS011;43181;50.974;18.244;2022-08-21T13:39:14;4.80;;;2.70;;
57345;SDS011;43181;50.974;18.244;2022-08-21T13:41:43;2.80;;;2.20;;
57345;SDS011;43181;50.974;18.244;2022-08-21T13:44:20;3.80;;;2.40;;
57345;SDS011;43181;50.974;18.244;2022-08-21T13:46:51;3.00;;;2.10;;
57345;SDS011;43181;50.974;18.244;2022-08-21T13:49:19;3.50;;;2.20;;
57345;SDS011;43181;50.974;18.244;2022-08-21T13:51:46;3.10;;;2.10;;
57345;SDS011;43181;50.974;18.244;2022-08-21T13:54:16;5.00;;;2.80;;
57345;SDS011;43181;50.974;18.244;2022-08-21T13:56:51;4.80;;;2.60;;
57345;SDS011;43181;50.974;18.244;2022-08-21T13:59:24;4.10;;;2.40;;
57345;SDS011;43181;50.974;18.244;2022-08-21T14:04:56;4.10;;;2.30;;
57345;SDS011;43181;50.974;18.244;2022-08-21T14:09:52;2.80;;;2.00;;
57345;SDS011;43181;50.974;18.244;2022-08-21T14:12:33;4.50;;;2.40;;
57345;SDS011;43181;50.974;18.244;2022-08-21T14:15:23;4.20;;;2.40;;
57345;SDS011;43181;50.974;18.244;2022-08-21T14:17:51;4.50;;;2.50;;
57345;SDS011;43181;50.974;18.244;2022-08-21T14:20:30;3.70;;;2.10;;
57345;SDS011;43181;50.974;18.244;2022-08-21T14:22:58;3.40;;;2.40;;
57345;SDS011;43181;50.974;18.244;2022-08-21T14:30:27;4.20;;;2.60;;
57345;SDS011;43181;50.974;18.244;2022-08-21T14:32:54;4.10;;;2.50;;
57345;SDS011;43181;50.974;18.244;2022-08-21T14:35:20;3.80;;;2.40;;
57345;SDS011;43181;50.974;18.244;2022-08-21T14:37:47;4.90;;;2.60;;
57345;SDS011;43181;50.974;18.244;2022-08-21T14:40:16;4.00;;;2.40;;
57345;SDS011;43181;50.974;18.244;2022-08-21T14:42:42;4.40;;;2.80;;
57345;SDS011;43181;50.974;18.244;2022-08-21T14:47:54;4.40;;;2.50;;
57345;SDS011;43181;50.974;18.244;2022-08-21T14:50:21;4.40;;;2.30;;
57345;SDS011;43181;50.974;18.244;2022-08-21T14:52:47;2.90;;;2.40;;
57345;SDS011;43181;50.974;18.244;2022-08-21T14:55:13;3.60;;;2.60;;
57345;SDS011;43181;50.974;18.244;2022-08-21T14:57:41;3.10;;;2.20;;
57345;SDS011;43181;50.974;18.244;2022-08-21T15:00:11;3.80;;;2.40;;
57345;SDS011;43181;50.974;18.244;2022-08-21T15:02:39;4.00;;;2.60;;
57345;SDS011;43181;50.974;18.244;2022-08-21T15:05:04;3.10;;;2.30;;
57345;SDS011;43181;50.974;18.244;2022-08-21T15:07:31;3.90;;;2.00;;
57345;SDS011;43181;50.974;18.244;2022-08-21T15:09:56;3.50;;;2.40;;
57345;SDS011;43181;50.974;18.244;2022-08-21T15:12:22;3.80;;;2.50;;
57345;SDS011;43181;50.974;18.244;2022-08-21T15:14:49;3.60;;;2.30;;
57345;SDS011;43181;50.974;18.244;2022-08-21T15:17:14;3.10;;;2.50;;
57345;SDS011;43181;50.974;18.244;2022-08-21T15:19:40;3.50;;;2.20;;
57345;SDS011;43181;50.974;18.244;2022-08-21T15:22:06;5.40;;;2.50;;
57345;SDS011;43181;50.974;18.244;2022-08-21T15:24:32;4.20;;;2.30;;
57345;SDS011;43181;50.974;18.244;2022-08-21T15:27:01;4.20;;;2.70;;
57345;SDS011;43181;50.974;18.244;2022-08-21T15:29:28;6.30;;;3.20;;
57345;SDS011;43181;50.974;18.244;2022-08-21T15:31:59;4.10;;;2.70;;
57345;SDS011;43181;50.974;18.244;2022-08-21T15:34:28;4.90;;;3.00;;
57345;SDS011;43181;50.974;18.244;2022-08-21T15:36:55;5.50;;;3.60;;
57345;SDS011;43181;50.974;18.244;2022-08-21T15:39:22;5.50;;;3.10;;
57345;SDS011;43181;50.974;18.244;2022-08-21T15:41:47;5.40;;;3.30;;
57345;SDS011;43181;50.974;18.244;2022-08-21T15:44:14;6.50;;;3.70;;
57345;SDS011;43181;50.974;18.244;2022-08-21T15:46:40;6.30;;;3.60;;
57345;SDS011;43181;50.974;18.244;2022-08-21T15:49:06;6.20;;;3.70;;
57345;SDS011;43181;50.974;18.244;2022-08-21T15:51:33;7.20;;;4.40;;
57345;SDS011;43181;50.974;18.244;2022-08-21T15:53:59;9.40;;;5.00;;
57345;SDS011;43181;50.974;18.244;2022-08-21T15:56:32;6.20;;;3.70;;
57345;SDS011;43181;50.974;18.244;2022-08-21T15:59:02;8.40;;;4.10;;
57345;SDS011;43181;50.974;18.244;2022-08-21T16:01:29;7.90;;;4.50;;
57345;SDS011;43181;50.974;18.244;2022-08-21T16:03:55;7.40;;;4.10;;
57345;SDS011;43181;50.974;18.244;2022-08-21T16:06:21;8.00;;;3.90;;
57345;SDS011;43181;50.974;18.244;2022-08-21T16:08:46;6.30;;;4.40;;
57345;SDS011;43181;50.974;18.244;2022-08-21T16:11:12;7.20;;;4.20;;
57345;SDS011;43181;50.974;18.244;2022-08-21T16:13:40;6.50;;;4.20;;
57345;SDS011;43181;50.974;18.244;2022-08-21T16:16:10;7.30;;;4.20;;